Time;durP1;ratioP1;P1;durP2;ratioP2;P2;SDS_P1;SDS_P2;PMS_P1;PMS_P2;Temp;Humidity;BMP_temperature;BMP_pressure;BME280_temperature;BME280_humidity;BME280_pressure;Samples;Min_cycle;Max_cycle;Signal;HPM_P1;HPM_P2
2023/12/12 00:00:41;;;;;;;10.00;7.70;;;;;;;7.44;100.00;98963.96;110794;1259;21971;-76
2023/12/12 00:04:03;;;;;;;8.20;6.90;;;;;;;7.45;100.00;98964.45;110695;1259;21979;-77
2023/12/12 00:08:06;;;;;;;;;;;;;;;;;;;;;
2023/12/12 00:11:38;;;;;;;7.40;6.70;;;;;;;7.46;100.00;98974.97;111070;1256;21973;-77
2023/12/12 00:15:08;;;;;;;7.90;7.00;;;;;;;7.48;100.00;98982.83;111019;1256;21988;-76
2023/12/12 00:22:27;;;;;;;8.20;7.10;;;;;;;7.43;100.00;98993.27;110525;1264;22110;-77
2023/12/12 00:25:34;;;;;;;7.40;6.70;;;;;;;7.45;100.00;98999.19;109993;1268;22061;-76
2023/12/12 00:29:35;;;;;;;;;;;;;;;;;;;;;
2023/12/12 00:32:46;;;;;;;6.90;6.30;;;;;;;7.51;100.00;99007.42;109514;1268;23654;-79
2023/12/12 00:36:41;;;;;;;;;;;;;;;7.52;100.00;99013.09;109674;1270;22017;-77
2023/12/12 00:39:03;;;;;;;7.40;6.80;;;;;;;7.43;100.00;99014.02;109472;1269;21992;-79
2023/12/12 00:41:33;;;;;;;8.40;7.70;;;;;;;7.48;100.00;99015.55;109472;1269;23172;-79
2023/12/12 00:44:10;;;;;;;8.90;8.00;;;;;;;7.55;100.00;99018.67;109767;1269;22071;-79
2023/12/12 00:46:50;;;;;;;9.50;8.60;;;;;;;7.58;100.00;99021.15;109786;1264;22731;-79
2023/12/12 00:49:25;;;;;;;8.90;8.10;;;;;;;7.59;100.00;99024.20;110604;1264;22088;-80
2023/12/12 00:51:55;;;;;;;8.80;7.90;;;;;;;7.60;100.00;99024.14;110533;1263;23639;-81
2023/12/12 00:54:38;;;;;;;8.10;7.30;;;;;;;7.56;100.00;99028.98;111033;1257;24317;-79
2023/12/12 00:57:23;;;;;;;7.20;6.50;;;;;;;7.53;100.00;99030.17;111358;1254;21963;-77
2023/12/12 00:59:53;;;;;;;6.90;6.30;;;;;;;7.50;100.00;99033.96;111589;1249;21965;-81
2023/12/12 01:02:26;;;;;;;6.20;5.60;;;;;;;7.47;100.00;99038.59;111870;1244;23041;-80
2023/12/12 01:05:26;;;;;;;6.20;5.30;;;;;;;7.46;100.00;99042.47;111856;1249;23590;-77
2023/12/12 01:08:08;;;;;;;4.30;3.80;;;;;;;7.43;100.00;99048.61;111846;1249;21958;-78
2023/12/12 01:10:37;;;;;;;4.00;3.30;;;;;;;7.43;100.00;99051.61;111789;1249;21956;-77
2023/12/12 01:13:11;;;;;;;4.00;3.60;;;;;;;7.43;100.00;99049.37;112200;1242;23057;-77
2023/12/12 01:15:39;;;;;;;3.20;2.40;;;;;;;7.41;100.00;99054.27;111690;1249;21966;-77
2023/12/12 01:18:11;;;;;;;2.50;2.30;;;;;;;7.42;100.00;99058.54;111308;1253;23725;-79
2023/12/12 01:20:45;;;;;;;3.50;2.60;;;;;;;7.42;100.00;99056.48;111215;1253;21978;-79
2023/12/12 01:23:13;;;;;;;2.80;2.50;;;;;;;7.45;100.00;99055.31;111248;1253;21976;-78
2023/12/12 01:25:41;;;;;;;2.30;2.00;;;;;;;7.44;100.00;99055.16;111449;1253;22431;-77
2023/12/12 01:28:10;;;;;;;4.00;2.30;;;;;;;7.44;100.00;99060.90;111282;1253;23048;-78
2023/12/12 01:30:43;;;;;;;1.90;1.70;;;;;;;7.45;100.00;99063.45;111209;1256;21967;-78
2023/12/12 01:33:11;;;;;;;2.50;2.20;;;;;;;7.41;100.00;99061.55;111409;1249;23031;-81
2023/12/12 01:35:40;;;;;;;3.50;1.90;;;;;;;7.40;100.00;99063.52;111607;1249;21997;-79
2023/12/12 01:38:14;;;;;;;3.10;1.80;;;;;;;7.43;100.00;99072.70;111436;1249;21972;-79
2023/12/12 01:40:48;;;;;;;2.10;1.60;;;;;;;7.41;100.00;99074.52;111050;1254;21964;-80
2023/12/12 01:43:27;;;;;;;2.30;1.90;;;;;;;7.40;100.00;99076.29;111390;1251;23038;-79
2023/12/12 01:46:09;;;;;;;2.40;2.20;;;;;;;7.39;100.00;99082.91;111128;1255;23063;-81
2023/12/12 01:48:42;;;;;;;2.40;2.10;;;;;;;7.39;100.00;99088.98;110988;1251;22015;-77
2023/12/12 01:51:14;;;;;;;2.90;2.00;;;;;;;7.39;100.00;99087.58;111557;1251;22999;-77
2023/12/12 01:53:48;;;;;;;2.90;2.00;;;;;;;7.38;100.00;99085.19;111585;1251;21997;-79
2023/12/12 01:56:18;;;;;;;1.90;1.70;;;;;;;7.38;100.00;99087.14;111573;1244;22618;-78
2023/12/12 01:58:52;;;;;;;1.80;1.50;;;;;;;7.37;100.00;99089.75;111516;1247;22254;-78
2023/12/12 02:01:29;;;;;;;3.60;1.60;;;;;;;7.37;100.00;99091.30;111947;1248;21957;-77
2023/12/12 02:04:02;;;;;;;2.60;2.20;;;;;;;7.36;100.00;99092.91;111851;1246;22875;-78
2023/12/12 02:06:33;;;;;;;3.30;2.40;;;;;;;7.36;100.00;99094.63;111729;1246;22431;-77
2023/12/12 02:09:06;;;;;;;3.20;2.30;;;;;;;7.35;100.00;99096.25;111272;1251;23838;-78
2023/12/12 02:11:41;;;;;;;3.00;2.30;;;;;;;7.35;100.00;99095.39;110894;1255;21969;-77
2023/12/12 02:14:17;;;;;;;2.80;2.20;;;;;;;7.34;100.00;99098.52;111065;1254;23027;-77
2023/12/12 02:16:50;;;;;;;2.30;2.10;;;;;;;7.32;100.00;99103.83;111070;1255;22064;-77
2023/12/12 02:19:18;;;;;;;2.90;2.70;;;;;;;7.31;100.00;99101.81;111033;1255;21977;-78
2023/12/12 02:21:46;;;;;;;3.50;2.60;;;;;;;7.29;100.00;99105.33;111080;1251;21956;-79
2023/12/12 02:24:14;;;;;;;4.20;2.40;;;;;;;7.30;100.00;99104.45;111047;1256;22027;-77
2023/12/12 02:26:48;;;;;;;3.40;2.80;;;;;;;7.30;100.00;99108.78;111111;1253;21971;-75
2023/12/12 02:29:21;;;;;;;2.80;2.50;;;;;;;7.30;100.00;99112.03;111277;1247;23021;-77
2023/12/12 02:31:52;;;;;;;2.30;2.10;;;;;;;7.30;100.00;99114.48;111894;1247;21955;-76
2023/12/12 02:34:29;;;;;;;2.80;2.30;;;;;;;7.30;100.00;99113.95;111310;1253;23802;-76
2023/12/12 02:36:59;;;;;;;2.80;2.60;;;;;;;7.29;100.00;99117.46;111168;1253;21985;-76
2023/12/12 02:39:32;;;;;;;3.20;2.90;;;;;;;7.30;100.00;99118.98;111325;1253;21968;-76
2023/12/12 02:42:07;;;;;;;3.30;2.90;;;;;;;7.32;100.00;99119.44;111462;1248;22014;-77
2023/12/12 02:44:41;;;;;;;4.00;3.20;;;;;;;7.31;100.00;99122.90;111674;1248;21957;-76
2023/12/12 02:47:14;;;;;;;4.30;2.90;;;;;;;7.31;100.00;99125.52;111642;1248;21960;-76
2023/12/12 02:49:48;;;;;;;3.20;2.60;;;;;;;7.31;100.00;99127.25;111920;1248;21958;-77
2023/12/12 02:52:22;;;;;;;3.40;3.00;;;;;;;7.32;100.00;99131.38;111838;1241;22125;-75
2023/12/12 02:54:54;;;;;;;3.80;2.80;;;;;;;7.31;100.00;99131.23;112490;1241;22007;-77
2023/12/12 02:57:27;;;;;;;4.70;2.50;;;;;;;7.31;100.00;99133.83;112636;1241;21955;-76
2023/12/12 02:59:55;;;;;;;4.10;2.40;;;;;;;7.31;100.00;99136.26;111832;1246;21971;-77
2023/12/12 03:02:24;;;;;;;3.10;2.50;;;;;;;7.30;100.00;99140.95;111999;1246;21986;-76
2023/12/12 03:04:57;;;;;;;3.30;2.40;;;;;;;7.30;100.00;99139.91;111984;1246;21959;-77
2023/12/12 03:07:29;;;;;;;2.80;2.20;;;;;;;7.31;100.00;99141.95;112227;1245;21968;-78
2023/12/12 03:10:01;;;;;;;;;;;;;;;7.32;100.00;99146.22;112228;1244;21944;-76
2023/12/12 03:12:34;;;;;;;3.60;2.60;;;;;;;7.25;100.00;99149.66;111757;1246;21951;-76
2023/12/12 03:15:04;;;;;;;2.50;2.20;;;;;;;7.25;100.00;99155.17;111737;1246;21953;-77
2023/12/12 03:17:38;;;;;;;3.60;2.60;;;;;;;7.27;100.00;99158.89;112059;1243;23034;-78
2023/12/12 03:20:09;;;;;;;2.90;2.60;;;;;;;7.28;100.00;99160.09;112326;1241;21948;-76
2023/12/12 03:22:39;;;;;;;3.00;2.10;;;;;;;7.28;100.00;99158.85;112712;1241;21981;-76
2023/12/12 03:25:10;;;;;;;2.70;2.30;;;;;;;7.29;100.00;99161.23;113208;1233;22976;-78
2023/12/12 03:27:42;;;;;;;3.60;2.40;;;;;;;7.31;100.00;99162.57;112747;1241;23694;-77
2023/12/12 03:30:14;;;;;;;2.70;2.50;;;;;;;7.31;100.00;99160.63;112661;1241;21950;-78
2023/12/12 03:33:00;;;;;;;3.30;2.30;;;;;;;7.29;100.00;99165.23;112800;1239;21953;-78
2023/12/12 03:35:38;;;;;;;2.80;2.60;;;;;;;7.25;100.00;99166.41;111964;1246;21966;-79
2023/12/12 03:38:07;;;;;;;2.20;1.90;;;;;;;7.25;100.00;99168.84;112020;1246;23736;-77
2023/12/12 03:40:36;;;;;;;3.10;2.00;;;;;;;7.28;100.00;99172.90;111982;1246;23600;-78
2023/12/12 03:43:08;;;;;;;3.00;2.20;;;;;;;7.30;100.00;99181.81;111898;1247;21970;-76
2023/12/12 03:45:37;;;;;;;2.10;1.80;;;;;;;7.30;100.00;99183.73;112207;1241;23615;-78
2023/12/12 03:48:06;;;;;;;2.30;2.10;;;;;;;7.30;100.00;99184.05;112006;1246;23610;-77
2023/12/12 03:50:40;;;;;;;2.00;1.30;;;;;;;7.31;100.00;99186.27;111398;1249;23694;-78
2023/12/12 03:53:10;;;;;;;2.20;1.90;;;;;;;7.29;100.00;99187.88;111385;1248;23635;-78
2023/12/12 03:55:38;;;;;;;3.00;1.90;;;;;;;7.30;100.00;99188.04;111837;1249;21973;-79
2023/12/12 03:58:11;;;;;;;3.00;1.90;;;;;;;7.31;100.00;99185.20;111705;1247;21968;-78
2023/12/12 04:00:48;;;;;;;1.90;1.50;;;;;;;7.31;100.00;99187.30;111654;1248;22125;-77
2023/12/12 04:03:30;;;;;;;2.70;1.80;;;;;;;7.29;100.00;99188.41;111784;1247;24395;-78
2023/12/12 04:06:06;;;;;;;3.00;2.30;;;;;;;7.30;100.00;99188.56;111874;1244;22364;-76
2023/12/12 04:08:36;;;;;;;2.70;2.00;;;;;;;7.29;100.00;99196.38;112384;1239;21958;-78
2023/12/12 04:11:11;;;;;;;2.80;1.60;;;;;;;7.30;100.00;99197.05;112944;1233;21953;-76
2023/12/12 04:13:50;;;;;;;184.90;150.40;;;;;;;7.31;100.00;99200.80;113029;1238;22825;-77
2023/12/12 04:16:26;;;;;;;7.60;6.70;;;;;;;7.30;100.00;99208.29;112874;1238;21953;-77
2023/12/12 04:19:01;;;;;;;3.10;2.80;;;;;;;7.27;100.00;99211.02;112787;1238;22000;-77
2023/12/12 04:21:37;;;;;;;3.40;2.80;;;;;;;7.24;100.00;99210.57;112761;1238;23692;-77
2023/12/12 04:24:21;;;;;;;2.40;2.00;;;;;;;7.22;100.00;99214.98;112142;1243;21970;-77
2023/12/12 04:26:52;;;;;;;1.40;1.20;;;;;;;7.16;100.00;99221.66;111690;1248;21961;-78
2023/12/12 04:29:35;;;;;;;1.30;1.10;;;;;;;7.09;100.00;99227.86;111686;1248;21993;-78
2023/12/12 04:32:12;;;;;;;1.60;1.30;;;;;;;7.01;100.00;99227.30;111676;1247;21965;-78
2023/12/12 04:34:50;;;;;;;1.50;1.00;;;;;;;6.94;100.00;99231.89;111872;1246;21959;-79
2023/12/12 04:37:23;;;;;;;2.00;1.30;;;;;;;6.90;100.00;99237.63;111296;1252;23584;-78
2023/12/12 04:39:52;;;;;;;2.30;1.50;;;;;;;6.85;100.00;99240.41;111340;1252;22987;-78
2023/12/12 04:42:26;;;;;;;;;;;;;;;6.78;100.00;99241.89;111062;1252;23040;-79
2023/12/12 04:45:00;;;;;;;1.10;1.00;;;;;;;6.62;100.00;99240.09;111697;1247;22025;-77
2023/12/12 04:47:35;;;;;;;1.30;0.90;;;;;;;6.59;100.00;99244.20;111719;1246;21981;-78
2023/12/12 04:50:15;;;;;;;1.60;1.10;;;;;;;6.58;100.00;99249.92;111953;1247;23031;-78
2023/12/12 04:52:50;;;;;;;2.30;1.40;;;;;;;6.52;100.00;99246.88;111739;1247;21964;-78
2023/12/12 04:55:27;;;;;;;2.00;1.30;;;;;;;6.52;100.00;99252.77;112287;1239;22139;-77
2023/12/12 04:58:04;;;;;;;1.60;1.40;;;;;;;6.50;100.00;99258.03;112949;1239;22119;-77
2023/12/12 05:00:34;;;;;;;1.70;1.50;;;;;;;6.48;100.00;99264.30;112736;1233;21974;-77
2023/12/12 05:03:07;;;;;;;1.20;1.00;;;;;;;6.43;100.00;99261.73;112800;1240;24299;-78
2023/12/12 05:05:36;;;;;;;2.50;1.30;;;;;;;6.41;100.00;99268.38;112749;1240;21953;-79
2023/12/12 05:08:05;;;;;;;1.80;1.40;;;;;;;6.37;100.00;99272.33;111707;1246;23714;-77
2023/12/12 05:10:35;;;;;;;3.70;1.80;;;;;;;6.34;100.00;99282.30;111909;1247;21957;-78
2023/12/12 05:13:07;;;;;;;3.30;1.90;;;;;;;6.33;100.00;99286.30;111668;1250;21968;-77
2023/12/12 05:15:37;;;;;;;2.10;1.60;;;;;;;6.30;100.00;99289.55;111379;1253;22443;-77
2023/12/12 05:18:10;;;;;;;4.70;3.30;;;;;;;6.28;100.00;99296.88;111263;1253;21969;-78
2023/12/12 05:20:48;;;;;;;3.80;2.70;;;;;;;6.26;100.00;99301.77;110805;1255;21964;-78
2023/12/12 05:23:22;;;;;;;3.60;2.80;;;;;;;6.24;100.00;99304.08;110781;1259;23710;-78
2023/12/12 05:25:56;;;;;;;3.80;2.90;;;;;;;6.23;100.00;99310.18;110747;1255;21986;-77
2023/12/12 05:28:27;;;;;;;3.10;2.70;;;;;;;6.22;100.00;99313.86;111158;1254;23709;-78
2023/12/12 05:31:01;;;;;;;5.30;3.20;;;;;;;6.19;100.00;99318.10;111436;1248;21978;-78
2023/12/12 05:33:33;;;;;;;5.40;3.20;;;;;;;6.17;100.00;99320.40;111760;1247;22052;-77
2023/12/12 05:36:12;;;;;;;3.10;2.80;;;;;;;6.15;100.00;99327.23;111986;1246;22954;-79
2023/12/12 05:38:53;;;;;;;2.70;2.10;;;;;;;6.11;100.00;99332.88;112332;1239;23049;-76
2023/12/12 05:41:27;;;;;;;4.10;2.80;;;;;;;6.11;100.00;99338.59;113028;1233;21938;-78
2023/12/12 05:43:57;;;;;;;5.50;2.70;;;;;;;6.12;100.00;99347.20;113250;1233;21932;-79
2023/12/12 05:46:29;;;;;;;6.20;5.10;;;;;;;6.11;100.00;99350.70;113237;1233;22439;-78
2023/12/12 05:49:00;;;;;;;11.30;5.80;;;;;;;6.10;100.00;99357.13;113144;1239;23119;-77
2023/12/12 05:51:39;;;;;;;4.20;3.60;;;;;;;6.08;100.00;99362.89;112873;1241;21994;-77
2023/12/12 05:54:11;;;;;;;5.20;4.70;;;;;;;6.05;100.00;99370.58;109117;1246;3823647;-79
2023/12/12 05:56:45;;;;;;;3.60;2.90;;;;;;;6.02;100.00;99376.37;111862;1246;23058;-79
2023/12/12 05:59:22;;;;;;;5.20;4.20;;;;;;;5.99;100.00;99383.73;112038;1246;21953;-78
2023/12/12 06:02:03;;;;;;;8.10;6.00;;;;;;;5.96;100.00;99388.16;112132;1246;21945;-79
2023/12/12 06:04:38;;;;;;;7.50;6.30;;;;;;;5.94;100.00;99393.05;111406;1251;22019;-78
2023/12/12 06:07:11;;;;;;;15.60;10.20;;;;;;;5.94;100.00;99397.03;111363;1252;21996;-80
2023/12/12 06:10:15;;;;;;;12.60;8.80;;;;;;;5.77;100.00;99387.21;111761;1249;23041;-79
2023/12/12 06:12:55;;;;;;;10.60;7.90;;;;;;;5.88;100.00;99407.23;112234;1244;23729;-77
2023/12/12 06:15:38;;;;;;;10.10;7.40;;;;;;;5.88;100.00;99410.52;112235;1244;21948;-79
2023/12/12 06:18:19;;;;;;;10.40;7.40;;;;;;;5.85;100.00;99420.62;111739;1248;21997;-77
2023/12/12 06:21:00;;;;;;;10.30;7.80;;;;;;;5.81;100.00;99421.27;111649;1248;23704;-79
2023/12/12 06:23:48;;;;;;;8.00;5.70;;;;;;;5.78;100.00;99427.06;111893;1247;23228;-75
2023/12/12 06:26:29;;;;;;;6.00;4.40;;;;;;;5.78;100.00;99436.04;112303;1242;21950;-75
2023/12/12 06:29:02;;;;;;;9.80;5.10;;;;;;;5.88;100.00;99439.86;112217;1242;21943;-75
2023/12/12 06:31:37;;;;;;;7.50;4.70;;;;;;;5.97;100.00;99447.02;112434;1242;22016;-77
2023/12/12 06:34:12;;;;;;;6.30;4.30;;;;;;;6.06;100.00;99453.98;112523;1242;22003;-78
2023/12/12 06:36:50;;;;;;;5.80;4.40;;;;;;;6.16;100.00;99458.14;112698;1237;22829;-76
2023/12/12 06:39:46;;;;;;;9.70;6.10;;;;;;;6.09;100.00;99465.96;113154;1237;23677;-76
2023/12/12 06:42:22;;;;;;;9.60;5.80;;;;;;;6.04;100.00;99472.00;113390;1233;22717;-78
2023/12/12 06:45:02;;;;;;;5.80;4.40;;;;;;;6.01;100.00;99476.07;113390;1233;24265;-78
2023/12/12 06:48:00;;;;;;;7.50;6.20;;;;;;;5.95;100.00;99482.12;113086;1238;21958;-77
2023/12/12 06:50:32;;;;;;;5.50;4.20;;;;;;;5.96;100.00;99481.95;112723;1238;21944;-77
2023/12/12 06:53:03;;;;;;;8.30;5.80;;;;;;;5.95;100.00;99492.84;112917;1238;21952;-77
2023/12/12 06:55:38;;;;;;;4.50;3.30;;;;;;;5.92;100.00;99499.15;112914;1238;21947;-75
2023/12/12 06:58:11;;;;;;;4.40;3.40;;;;;;;5.87;100.00;99502.77;113060;1238;23689;-75
2023/12/12 07:01:16;;;;;;;6.10;3.30;;;;;;;5.83;100.00;99509.61;112975;1238;21985;-78
2023/12/12 07:04:06;;;;;;;3.50;2.50;;;;;;;5.80;100.00;99514.18;112268;1243;21950;-78
2023/12/12 07:06:42;;;;;;;5.00;2.80;;;;;;;5.77;100.00;99513.27;112779;1239;23044;-78
2023/12/12 07:09:16;;;;;;;3.90;2.70;;;;;;;5.73;100.00;99515.80;112894;1238;21945;-77
2023/12/12 07:11:56;;;;;;;3.20;2.60;;;;;;;5.71;100.00;99518.61;112107;1243;21950;-78
2023/12/12 07:14:55;;;;;;;3.90;3.10;;;;;;;5.68;100.00;99525.09;112301;1243;21997;-78
2023/12/12 07:17:46;;;;;;;4.90;4.20;;;;;;;5.68;100.00;99526.99;112322;1243;21970;-77
2023/12/12 07:20:48;;;;;;;;;;;;;;;;;;;;;
2023/12/12 07:23:29;;;;;;;6.00;4.60;;;;;;;5.68;100.00;99533.73;112082;1237;21941;-77
2023/12/12 07:26:30;;;;;;;7.80;5.10;;;;;;;5.67;100.00;99536.70;111485;1252;22048;-78
2023/12/12 07:29:32;;;;;;;8.80;6.10;;;;;;;5.67;100.00;99536.17;111379;1247;23588;-78
2023/12/12 07:32:26;;;;;;;;;;;;;;;;;;;;;
2023/12/12 07:35:14;;;;;;;10.90;7.60;;;;;;;5.77;100.00;99546.40;112177;1247;21987;-76
2023/12/12 07:38:10;;;;;;;14.30;9.30;;;;;;;5.80;100.00;99553.20;111842;1241;21995;-78
2023/12/12 07:41:03;;;;;;;20.10;12.80;;;;;;;5.81;100.00;99550.76;112432;1241;23717;-77
2023/12/12 07:43:41;;;;;;;22.10;13.40;;;;;;;5.81;100.00;99552.64;112344;1242;22732;-81
2023/12/12 07:46:23;;;;;;;14.80;9.90;;;;;;;5.85;100.00;99560.84;112239;1242;21952;-78
2023/12/12 07:49:09;;;;;;;13.10;9.10;;;;;;;5.90;100.00;99564.64;112208;1239;24280;-76
2023/12/12 07:51:49;;;;;;;9.50;8.00;;;;;;;5.97;100.00;99562.03;112695;1239;21946;-76
2023/12/12 07:55:13;;;;;;;11.80;8.40;;;;;;;6.02;100.00;99565.32;112087;1245;22751;-77
2023/12/12 07:58:07;;;;;;;;;;;;;;;;;;;;;
2023/12/12 08:00:59;;;;;;;8.50;7.40;;;;;;;6.15;100.00;99576.33;112480;1243;24288;-75
2023/12/12 08:03:54;;;;;;;10.30;8.30;;;;;;;6.19;100.00;99579.64;112328;1243;21954;-76
2023/12/12 08:07:02;;;;;;;13.10;10.80;;;;;;;6.24;100.00;99585.89;112261;1242;21962;-77
2023/12/12 08:10:13;;;;;;;;;;;;;;;;;;;;;
2023/12/12 08:13:12;;;;;;;11.50;9.20;;;;;;;6.25;100.00;99597.11;112161;1243;21941;-75
2023/12/12 08:16:08;;;;;;;6.90;6.20;;;;;;;6.21;100.00;99594.98;112135;1243;21973;-76
2023/12/12 08:18:49;;;;;;;7.40;6.40;;;;;;;6.20;100.00;99596.02;112399;1243;21972;-77
2023/12/12 08:21:18;;;;;;;7.90;6.30;;;;;;;6.23;100.00;99599.75;112209;1243;22442;-78
2023/12/12 08:23:56;;;;;;;8.20;6.70;;;;;;;6.23;100.00;99600.77;111902;1244;22723;-76
2023/12/12 08:26:28;;;;;;;7.20;6.10;;;;;;;6.26;100.00;99603.45;112263;1243;22947;-77
2023/12/12 08:29:03;;;;;;;9.40;8.00;;;;;;;6.30;100.00;99602.13;112281;1244;22368;-84
2023/12/12 08:31:31;;;;;;;10.10;7.50;;;;;;;6.35;100.00;99602.98;112027;1245;21940;-81
2023/12/12 08:34:07;;;;;;;9.40;7.30;;;;;;;6.41;100.00;99608.15;112316;1245;24349;-80
2023/12/12 08:36:37;;;;;;;7.80;7.00;;;;;;;6.43;100.00;99610.49;111679;1250;21958;-78
2023/12/12 08:39:08;;;;;;;10.90;7.70;;;;;;;6.47;100.00;99614.88;111071;1255;23597;-77
2023/12/12 08:41:38;;;;;;;10.60;8.10;;;;;;;6.47;100.00;99618.34;111282;1251;21993;-78
2023/12/12 08:44:09;;;;;;;14.60;11.20;;;;;;;6.46;100.00;99623.39;111614;1248;21984;-79
2023/12/12 08:46:43;;;;;;;14.30;11.90;;;;;;;6.46;100.00;99627.34;111580;1251;23044;-79
2023/12/12 08:49:18;;;;;;;12.50;9.60;;;;;;;6.51;100.00;99628.04;111414;1249;22942;-78
2023/12/12 08:51:47;;;;;;;13.30;11.30;;;;;;;6.53;100.00;99625.05;111310;1252;23661;-79
2023/12/12 08:54:20;;;;;;;10.60;7.80;;;;;;;6.53;100.00;99627.98;111255;1247;23626;-79
2023/12/12 08:56:52;;;;;;;11.50;9.30;;;;;;;6.50;100.00;99628.25;111865;1244;23600;-79
2023/12/12 08:59:22;;;;;;;10.20;8.70;;;;;;;6.47;100.00;99626.98;112225;1244;21996;-79
2023/12/12 09:01:51;;;;;;;10.70;7.60;;;;;;;6.47;100.00;99628.88;112297;1244;21964;-78
2023/12/12 09:04:22;;;;;;;9.10;7.70;;;;;;;6.48;100.00;99625.91;112101;1244;23555;-78
2023/12/12 09:06:54;;;;;;;15.70;9.40;;;;;;;6.51;100.00;99627.00;112394;1238;23005;-79
2023/12/12 09:09:27;;;;;;;9.10;8.20;;;;;;;6.55;100.00;99627.73;112905;1236;22018;-81
2023/12/12 09:12:14;;;;;;;10.40;8.60;;;;;;;6.57;100.00;99625.25;113086;1238;23473;-78
2023/12/12 09:14:54;;;;;;;10.90;9.80;;;;;;;6.61;100.00;99625.29;113118;1238;21926;-78
2023/12/12 09:17:26;;;;;;;12.20;9.90;;;;;;;6.64;100.00;99624.70;113055;1238;23572;-79
2023/12/12 09:20:00;;;;;;;20.60;11.60;;;;;;;6.62;100.00;99625.79;112844;1238;21939;-78
2023/12/12 09:22:32;;;;;;;13.70;11.40;;;;;;;6.58;100.00;99625.39;113140;1238;21971;-79
2023/12/12 09:25:06;;;;;;;15.90;11.80;;;;;;;6.56;100.00;99624.61;112887;1238;22334;-80
2023/12/12 09:27:43;;;;;;;14.20;11.50;;;;;;;6.55;100.00;99626.18;112945;1238;22039;-79
2023/12/12 09:30:12;;;;;;;14.80;11.60;;;;;;;6.56;100.00;99626.01;112975;1238;22339;-79
2023/12/12 09:32:40;;;;;;;13.30;11.00;;;;;;;6.57;100.00;99622.67;112525;1241;22720;-80
2023/12/12 09:35:18;;;;;;;12.30;10.50;;;;;;;6.58;100.00;99621.77;112505;1238;23985;-80
2023/12/12 09:38:00;;;;;;;15.90;12.10;;;;;;;6.56;100.00;99620.27;113107;1238;21941;-79
2023/12/12 09:40:36;;;;;;;12.20;9.80;;;;;;;6.62;100.00;99620.96;112974;1238;21937;-80
2023/12/12 09:43:24;;;;;;;10.20;9.10;;;;;;;6.64;100.00;99622.44;112338;1242;21973;-80
2023/12/12 09:46:02;;;;;;;11.90;9.50;;;;;;;6.66;100.00;99619.95;112465;1242;21961;-78
2023/12/12 09:48:53;;;;;;;13.80;9.50;;;;;;;6.70;100.00;99625.19;112365;1242;22345;-79
2023/12/12 09:51:47;;;;;;;13.90;9.70;;;;;;;6.72;100.00;99626.50;112832;1238;21959;-79
2023/12/12 09:54:32;;;;;;;;;;;;;;;6.75;100.00;99620.15;112888;1238;21930;-80
2023/12/12 09:58:16;;;;;;;14.10;11.60;;;;;;;6.69;100.00;99617.26;112963;1238;22015;-77
2023/12/12 10:05:00;;;;;;;12.90;10.40;;;;;;;6.81;100.00;99616.65;113206;1237;24465;-78
2023/12/12 10:08:06;;;;;;;9.80;8.80;;;;;;;6.87;100.00;99619.59;112320;1243;23012;-80
2023/12/12 10:11:26;;;;;;;10.50;8.40;;;;;;;6.90;100.00;99620.36;112422;1240;23405;-77
2023/12/12 10:14:06;;;;;;;12.20;9.90;;;;;;;6.94;100.00;99623.84;112439;1243;21973;-78
2023/12/12 10:17:16;;;;;;;;;;;;;;;;;;;;;
2023/12/12 10:20:45;;;;;;;;;;;;;;;;;;;;;
2023/12/12 10:23:32;;;;;;;12.30;10.10;;;;;;;7.13;100.00;99629.77;112222;1243;23733;-79
2023/12/12 10:26:24;;;;;;;15.10;11.80;;;;;;;7.19;100.00;99626.77;112611;1238;23014;-79
2023/12/12 10:29:26;;;;;;;;;;;;;;;;;;;;;
2023/12/12 10:32:03;;;;;;;20.80;16.80;;;;;;;7.31;100.00;99627.38;112391;1242;22010;-78
2023/12/12 10:34:59;;;;;;;16.70;14.90;;;;;;;7.40;100.00;99630.00;112366;1242;22700;-76
2023/12/12 10:37:46;;;;;;;15.40;12.70;;;;;;;7.52;100.00;99634.07;112396;1242;22847;-77
2023/12/12 10:40:28;;;;;;;13.50;12.20;;;;;;;7.64;100.00;99633.84;111933;1247;23701;-75
2023/12/12 10:43:13;;;;;;;15.30;13.70;;;;;;;7.72;100.00;99631.27;112410;1242;21942;-76
2023/12/12 10:45:59;;;;;;;27.00;24.20;;;;;;;7.76;100.00;99634.23;112548;1241;21958;-80
2023/12/12 10:48:34;;;;;;;22.00;19.80;;;;;;;7.83;100.00;99636.56;112716;1238;22307;-78
2023/12/12 10:51:32;;;;;;;21.30;19.10;;;;;;;7.91;100.00;99638.19;113094;1238;22031;-78
2023/12/12 10:54:39;;;;;;;18.30;15.20;;;;;;;7.89;100.00;99635.66;113077;1238;21948;-78
2023/12/12 10:57:21;;;;;;;18.60;16.10;;;;;;;7.85;100.00;99638.76;113073;1238;21976;-76
2023/12/12 11:03:13;;;;;;;25.40;20.40;;;;;;;7.81;100.00;99634.73;112842;1238;22362;-76
2023/12/12 11:05:53;;;;;;;30.20;21.20;;;;;;;7.85;100.00;99630.61;113416;1233;23001;-75
2023/12/12 11:08:56;;;;;;;;;;;;;;;;;;;;;
2023/12/12 11:12:11;;;;;;;14.00;12.40;;;;;;;7.91;100.00;99634.03;113459;1224;22377;-77
2023/12/12 11:14:59;;;;;;;19.50;17.40;;;;;;;7.93;100.00;99633.42;113571;1233;22787;-76
2023/12/12 11:17:51;;;;;;;29.10;24.70;;;;;;;7.93;100.00;99629.79;113682;1233;21972;-75
2023/12/12 11:20:37;;;;;;;30.10;21.10;;;;;;;7.93;100.00;99636.38;112929;1239;23023;-75
2023/12/12 11:23:52;;;;;;;18.20;16.30;;;;;;;7.91;100.00;99641.14;112134;1244;23033;-77
2023/12/12 11:26:57;;;;;;;24.00;21.40;;;;;;;7.85;100.00;99645.32;111983;1247;21950;-76
2023/12/12 11:29:53;;;;;;;19.20;17.20;;;;;;;7.85;100.00;99647.23;111954;1247;23602;-77
2023/12/12 11:32:46;;;;;;;16.90;15.20;;;;;;;7.80;100.00;99639.27;111987;1246;21915;-77
2023/12/12 11:35:34;;;;;;;12.00;10.80;;;;;;;7.77;100.00;99632.12;111352;1254;21958;-76
2023/12/12 11:38:41;;;;;;;10.90;9.50;;;;;;;7.88;100.00;99649.05;111307;1249;21968;-77
2023/12/12 11:41:34;;;;;;;17.00;15.20;;;;;;;7.85;100.00;99651.21;111436;1251;21965;-76
2023/12/12 11:44:49;;;;;;;15.40;13.80;;;;;;;7.87;100.00;99649.60;111706;1249;22733;-75
2023/12/12 11:48:08;;;;;;;;;;;;;;;;;;;;;
2023/12/12 11:51:14;;;;;;;18.30;16.40;;;;;;;7.82;100.00;99647.88;111356;1252;23027;-77
2023/12/12 11:54:06;;;;;;;17.50;14.70;;;;;;;7.78;100.00;99645.95;111658;1248;23644;-78
2023/12/12 11:57:10;;;;;;;19.40;16.20;;;;;;;7.78;100.00;99644.56;111357;1253;21958;-77
2023/12/12 12:00:19;;;;;;;16.90;15.20;;;;;;;7.78;100.00;99641.77;111388;1253;22740;-77
2023/12/12 12:03:11;;;;;;;14.50;12.90;;;;;;;7.81;100.00;99636.81;111365;1253;21957;-78
2023/12/12 12:06:03;;;;;;;15.60;12.90;;;;;;;7.83;100.00;99637.27;111324;1253;22002;-77
2023/12/12 12:08:46;;;;;;;21.30;17.00;;;;;;;7.82;100.00;99638.15;111468;1247;23607;-76
2023/12/12 12:12:03;;;;;;;;;;;;;;;;;;;;;
2023/12/12 12:15:10;;;;;;;17.00;13.90;;;;;;;7.69;100.00;99632.05;111565;1248;21967;-78
2023/12/12 12:18:00;;;;;;;18.60;13.80;;;;;;;7.66;100.00;99633.73;111870;1239;21918;-75
2023/12/12 12:20:46;;;;;;;15.60;12.80;;;;;;;7.65;100.00;99630.30;112724;1239;21957;-76
2023/12/12 12:23:54;;;;;;;;;;;;;;;7.61;100.00;99633.40;112218;1244;23677;-80
2023/12/12 12:26:37;;;;;;;16.50;13.00;;;;;;;7.52;100.00;99637.04;111613;1249;22519;-78
2023/12/12 12:29:14;;;;;;;19.50;14.40;;;;;;;7.51;100.00;99643.49;111674;1244;22176;-76
2023/12/12 12:32:17;;;;;;;19.60;16.10;;;;;;;7.50;100.00;99641.95;112015;1244;21982;-78
2023/12/12 12:35:17;;;;;;;20.00;17.70;;;;;;;7.47;100.00;99638.62;112008;1244;23723;-78
2023/12/12 12:38:21;;;;;;;20.70;18.70;;;;;;;7.41;100.00;99636.03;111937;1244;22618;-78
2023/12/12 12:41:27;;;;;;;27.60;24.60;;;;;;;7.41;100.00;99629.80;112418;1239;21945;-76
2023/12/12 12:44:00;;;;;;;28.60;24.70;;;;;;;7.44;100.00;99628.50;112406;1238;22852;-77
2023/12/12 12:46:29;;;;;;;25.20;20.70;;;;;;;7.45;100.00;99630.17;112977;1238;21941;-76
2023/12/12 12:49:08;;;;;;;29.50;26.10;;;;;;;7.46;100.00;99628.23;112265;1243;21956;-75
2023/12/12 12:51:40;;;;;;;29.60;26.50;;;;;;;7.45;100.00;99627.58;111953;1243;22177;-76
2023/12/12 12:54:15;;;;;;;29.70;26.80;;;;;;;7.44;100.00;99627.80;112091;1243;21949;-75
2023/12/12 12:56:56;;;;;;;25.80;22.60;;;;;;;7.43;100.00;99625.95;111684;1248;23817;-76
2023/12/12 12:59:41;;;;;;;29.50;21.90;;;;;;;7.37;100.00;99621.28;111684;1248;21992;-77